sensor_id;sensor_type;location;lat;lon;timestamp;P1;durP1;ratioP1;P2;durP2;ratioP2
58567;SDS011;44354;46.192;-1.076;2022-12-19T00:00:48;5.18;;;4.68;;
58567;SDS011;44354;46.192;-1.076;2022-12-19T00:03:14;7.10;;;4.03;;
58567;SDS011;44354;46.192;-1.076;2022-12-19T00:05:40;6.53;;;4.30;;
58567;SDS011;44354;46.192;-1.076;2022-12-19T00:08:08;6.90;;;3.92;;
58567;SDS011;44354;46.192;-1.076;2022-12-19T00:10:38;6.55;;;3.92;;
58567;SDS011;44354;46.192;-1.076;2022-12-19T00:13:04;4.10;;;3.72;;
58567;SDS011;44354;46.192;-1.076;2022-12-19T00:15:32;6.03;;;3.80;;
58567;SDS011;44354;46.192;-1.076;2022-12-19T00:17:58;5.20;;;3.78;;
58567;SDS011;44354;46.192;-1.076;2022-12-19T00:20:23;5.35;;;4.05;;
58567;SDS011;44354;46.192;-1.076;2022-12-19T00:22:49;8.60;;;5.07;;
58567;SDS011;44354;46.192;-1.076;2022-12-19T00:25:15;6.40;;;4.00;;
58567;SDS011;44354;46.192;-1.076;2022-12-19T00:27:40;7.53;;;3.97;;
58567;SDS011;44354;46.192;-1.076;2022-12-19T00:30:06;3.88;;;3.30;;
58567;SDS011;44354;46.192;-1.076;2022-12-19T00:32:32;3.67;;;3.20;;
58567;SDS011;44354;46.192;-1.076;2022-12-19T00:34:58;6.05;;;2.97;;
58567;SDS011;44354;46.192;-1.076;2022-12-19T00:37:24;4.55;;;3.33;;
58567;SDS011;44354;46.192;-1.076;2022-12-19T00:39:50;7.03;;;2.80;;
58567;SDS011;44354;46.192;-1.076;2022-12-19T00:42:15;5.22;;;3.35;;
58567;SDS011;44354;46.192;-1.076;2022-12-19T00:44:41;6.50;;;3.00;;
58567;SDS011;44354;46.192;-1.076;2022-12-19T00:47:07;4.90;;;3.13;;
58567;SDS011;44354;46.192;-1.076;2022-12-19T00:49:32;5.22;;;2.95;;
58567;SDS011;44354;46.192;-1.076;2022-12-19T00:51:58;4.05;;;2.97;;
58567;SDS011;44354;46.192;-1.076;2022-12-19T00:54:24;4.32;;;3.00;;
58567;SDS011;44354;46.192;-1.076;2022-12-19T00:56:49;4.07;;;2.90;;
58567;SDS011;44354;46.192;-1.076;2022-12-19T00:59:15;4.38;;;2.53;;
58567;SDS011;44354;46.192;-1.076;2022-12-19T01:01:41;5.10;;;2.97;;
58567;SDS011;44354;46.192;-1.076;2022-12-19T01:04:07;4.25;;;2.83;;
58567;SDS011;44354;46.192;-1.076;2022-12-19T01:06:37;4.72;;;2.72;;
58567;SDS011;44354;46.192;-1.076;2022-12-19T01:09:03;3.83;;;2.30;;
58567;SDS011;44354;46.192;-1.076;2022-12-19T01:11:29;3.63;;;2.72;;
58567;SDS011;44354;46.192;-1.076;2022-12-19T01:14:13;7.30;;;2.45;;
58567;SDS011;44354;46.192;-1.076;2022-12-19T01:16:39;8.30;;;2.33;;
58567;SDS011;44354;46.192;-1.076;2022-12-19T01:19:05;3.40;;;2.20;;
58567;SDS011;44354;46.192;-1.076;2022-12-19T01:21:31;3.70;;;2.67;;
58567;SDS011;44354;46.192;-1.076;2022-12-19T01:24:00;5.43;;;2.60;;
58567;SDS011;44354;46.192;-1.076;2022-12-19T01:26:26;3.30;;;2.08;;
58567;SDS011;44354;46.192;-1.076;2022-12-19T01:28:52;3.35;;;2.13;;
58567;SDS011;44354;46.192;-1.076;2022-12-19T01:31:17;3.85;;;1.42;;
58567;SDS011;44354;46.192;-1.076;2022-12-19T01:33:43;1.15;;;0.73;;
58567;SDS011;44354;46.192;-1.076;2022-12-19T01:36:09;3.72;;;2.50;;
58567;SDS011;44354;46.192;-1.076;2022-12-19T01:38:35;3.70;;;1.80;;
58567;SDS011;44354;46.192;-1.076;2022-12-19T01:41:01;3.22;;;1.63;;
58567;SDS011;44354;46.192;-1.076;2022-12-19T01:43:28;1.58;;;1.17;;
58567;SDS011;44354;46.192;-1.076;2022-12-19T01:45:56;3.65;;;1.83;;
58567;SDS011;44354;46.192;-1.076;2022-12-19T01:48:28;4.00;;;1.80;;
58567;SDS011;44354;46.192;-1.076;2022-12-19T01:50:59;2.95;;;1.90;;
58567;SDS011;44354;46.192;-1.076;2022-12-19T01:53:29;2.60;;;1.90;;
58567;SDS011;44354;46.192;-1.076;2022-12-19T01:56:04;5.78;;;2.20;;
58567;SDS011;44354;46.192;-1.076;2022-12-19T01:58:34;3.17;;;1.98;;
58567;SDS011;44354;46.192;-1.076;2022-12-19T02:01:01;6.32;;;2.40;;
58567;SDS011;44354;46.192;-1.076;2022-12-19T02:03:28;4.25;;;2.03;;
58567;SDS011;44354;46.192;-1.076;2022-12-19T02:05:56;4.57;;;2.03;;
58567;SDS011;44354;46.192;-1.076;2022-12-19T02:08:24;2.55;;;1.60;;
58567;SDS011;44354;46.192;-1.076;2022-12-19T02:10:51;3.35;;;1.83;;
58567;SDS011;44354;46.192;-1.076;2022-12-19T02:13:17;2.58;;;1.77;;
58567;SDS011;44354;46.192;-1.076;2022-12-19T02:15:51;3.75;;;1.55;;
58567;SDS011;44354;46.192;-1.076;2022-12-19T02:21:48;3.67;;;1.85;;
58567;SDS011;44354;46.192;-1.076;2022-12-19T02:24:32;2.35;;;1.70;;
58567;SDS011;44354;46.192;-1.076;2022-12-19T02:27:29;3.20;;;2.03;;
58567;SDS011;44354;46.192;-1.076;2022-12-19T02:38:19;5.90;;;1.77;;
58567;SDS011;44354;46.192;-1.076;2022-12-19T02:41:00;7.28;;;1.80;;
58567;SDS011;44354;46.192;-1.076;2022-12-19T02:43:32;3.35;;;1.80;;
58567;SDS011;44354;46.192;-1.076;2022-12-19T02:46:03;3.53;;;1.67;;
58567;SDS011;44354;46.192;-1.076;2022-12-19T02:48:31;5.85;;;1.58;;
58567;SDS011;44354;46.192;-1.076;2022-12-19T02:50:58;3.65;;;1.30;;
58567;SDS011;44354;46.192;-1.076;2022-12-19T02:53:23;3.53;;;1.48;;
58567;SDS011;44354;46.192;-1.076;2022-12-19T02:55:52;2.97;;;1.83;;
58567;SDS011;44354;46.192;-1.076;2022-12-19T02:58:29;2.80;;;1.77;;
58567;SDS011;44354;46.192;-1.076;2022-12-19T03:06:41;3.75;;;1.40;;
58567;SDS011;44354;46.192;-1.076;2022-12-19T03:09:18;2.90;;;1.52;;
58567;SDS011;44354;46.192;-1.076;2022-12-19T03:11:44;5.82;;;1.55;;
58567;SDS011;44354;46.192;-1.076;2022-12-19T03:14:15;0.35;;;0.35;;
58567;SDS011;44354;46.192;-1.076;2022-12-19T03:16:43;1.65;;;0.93;;
58567;SDS011;44354;46.192;-1.076;2022-12-19T03:19:10;0.10;;;0.10;;
58567;SDS011;44354;46.192;-1.076;2022-12-19T03:21:39;4.20;;;1.42;;
58567;SDS011;44354;46.192;-1.076;2022-12-19T03:24:08;6.53;;;2.20;;
58567;SDS011;44354;46.192;-1.076;2022-12-19T03:26:37;4.25;;;1.77;;
58567;SDS011;44354;46.192;-1.076;2022-12-19T03:29:12;2.83;;;1.70;;
58567;SDS011;44354;46.192;-1.076;2022-12-19T03:31:44;6.32;;;1.80;;
58567;SDS011;44354;46.192;-1.076;2022-12-19T03:34:18;3.85;;;1.60;;
58567;SDS011;44354;46.192;-1.076;2022-12-19T03:36:51;3.63;;;1.13;;
58567;SDS011;44354;46.192;-1.076;2022-12-19T03:39:25;3.83;;;1.73;;
58567;SDS011;44354;46.192;-1.076;2022-12-19T03:41:53;2.65;;;1.88;;
58567;SDS011;44354;46.192;-1.076;2022-12-19T03:44:40;7.32;;;2.15;;
58567;SDS011;44354;46.192;-1.076;2022-12-19T03:49:48;4.05;;;2.03;;
58567;SDS011;44354;46.192;-1.076;2022-12-19T03:52:23;4.03;;;1.90;;
58567;SDS011;44354;46.192;-1.076;2022-12-19T03:55:22;3.55;;;1.70;;
58567;SDS011;44354;46.192;-1.076;2022-12-19T04:00:14;2.28;;;1.30;;
58567;SDS011;44354;46.192;-1.076;2022-12-19T04:02:44;4.20;;;1.77;;
58567;SDS011;44354;46.192;-1.076;2022-12-19T04:05:14;5.70;;;2.13;;
58567;SDS011;44354;46.192;-1.076;2022-12-19T04:07:44;4.05;;;1.70;;
58567;SDS011;44354;46.192;-1.076;2022-12-19T04:10:13;5.10;;;2.03;;
58567;SDS011;44354;46.192;-1.076;2022-12-19T04:12:43;5.22;;;1.98;;
58567;SDS011;44354;46.192;-1.076;2022-12-19T04:15:12;6.93;;;1.65;;
58567;SDS011;44354;46.192;-1.076;2022-12-19T04:20:16;0.10;;;0.10;;
58567;SDS011;44354;46.192;-1.076;2022-12-19T04:22:49;0.20;;;0.20;;
58567;SDS011;44354;46.192;-1.076;2022-12-19T04:25:42;0.10;;;0.10;;
58567;SDS011;44354;46.192;-1.076;2022-12-19T04:28:13;0.45;;;0.40;;
58567;SDS011;44354;46.192;-1.076;2022-12-19T04:30:44;2.30;;;1.70;;
58567;SDS011;44354;46.192;-1.076;2022-12-19T04:33:12;5.57;;;1.75;;
58567;SDS011;44354;46.192;-1.076;2022-12-19T04:35:37;5.57;;;1.65;;
58567;SDS011;44354;46.192;-1.076;2022-12-19T04:38:03;3.50;;;1.30;;
58567;SDS011;44354;46.192;-1.076;2022-12-19T04:40:30;4.07;;;1.75;;
58567;SDS011;44354;46.192;-1.076;2022-12-19T04:42:55;2.92;;;1.35;;
58567;SDS011;44354;46.192;-1.076;2022-12-19T04:45:21;1.77;;;1.35;;
58567;SDS011;44354;46.192;-1.076;2022-12-19T04:47:47;4.70;;;1.40;;
58567;SDS011;44354;46.192;-1.076;2022-12-19T04:50:12;1.85;;;1.20;;
58567;SDS011;44354;46.192;-1.076;2022-12-19T04:52:38;3.55;;;1.92;;
58567;SDS011;44354;46.192;-1.076;2022-12-19T04:55:04;2.30;;;1.30;;
58567;SDS011;44354;46.192;-1.076;2022-12-19T04:57:30;5.80;;;1.70;;
58567;SDS011;44354;46.192;-1.076;2022-12-19T04:59:56;3.10;;;1.40;;
58567;SDS011;44354;46.192;-1.076;2022-12-19T05:02:22;6.25;;;1.67;;
58567;SDS011;44354;46.192;-1.076;2022-12-19T05:04:48;2.97;;;1.90;;
58567;SDS011;44354;46.192;-1.076;2022-12-19T05:07:18;3.78;;;1.77;;
58567;SDS011;44354;46.192;-1.076;2022-12-19T05:09:43;3.72;;;1.65;;
58567;SDS011;44354;46.192;-1.076;2022-12-19T05:12:09;1.88;;;1.25;;
58567;SDS011;44354;46.192;-1.076;2022-12-19T05:14:35;3.22;;;1.73;;
58567;SDS011;44354;46.192;-1.076;2022-12-19T05:17:01;4.72;;;1.75;;
58567;SDS011;44354;46.192;-1.076;2022-12-19T05:19:27;4.80;;;1.70;;
58567;SDS011;44354;46.192;-1.076;2022-12-19T05:21:53;6.93;;;1.92;;
58567;SDS011;44354;46.192;-1.076;2022-12-19T05:24:19;1.85;;;1.27;;
58567;SDS011;44354;46.192;-1.076;2022-12-19T05:26:44;3.20;;;1.85;;
58567;SDS011;44354;46.192;-1.076;2022-12-19T05:29:11;3.65;;;1.95;;
58567;SDS011;44354;46.192;-1.076;2022-12-19T05:31:37;4.28;;;1.65;;
58567;SDS011;44354;46.192;-1.076;2022-12-19T05:34:03;3.58;;;1.70;;
58567;SDS011;44354;46.192;-1.076;2022-12-19T05:36:28;4.90;;;1.90;;
58567;SDS011;44354;46.192;-1.076;2022-12-19T05:38:54;5.32;;;2.00;;
58567;SDS011;44354;46.192;-1.076;2022-12-19T05:41:20;3.28;;;1.52;;
58567;SDS011;44354;46.192;-1.076;2022-12-19T05:43:49;3.00;;;1.70;;
58567;SDS011;44354;46.192;-1.076;2022-12-19T05:46:18;2.40;;;1.40;;
58567;SDS011;44354;46.192;-1.076;2022-12-19T05:48:44;3.40;;;1.73;;
58567;SDS011;44354;46.192;-1.076;2022-12-19T05:51:10;2.72;;;1.80;;
58567;SDS011;44354;46.192;-1.076;2022-12-19T05:53:37;0.10;;;0.10;;
58567;SDS011;44354;46.192;-1.076;2022-12-19T05:56:04;0.30;;;0.30;;
58567;SDS011;44354;46.192;-1.076;2022-12-19T05:58:32;0.30;;;0.30;;
58567;SDS011;44354;46.192;-1.076;2022-12-19T06:01:08;0.20;;;0.20;;
58567;SDS011;44354;46.192;-1.076;2022-12-19T06:03:35;0.10;;;0.10;;
58567;SDS011;44354;46.192;-1.076;2022-12-19T06:06:06;0.10;;;0.10;;
58567;SDS011;44354;46.192;-1.076;2022-12-19T06:08:36;0.43;;;0.40;;
58567;SDS011;44354;46.192;-1.076;2022-12-19T06:11:03;0.13;;;0.13;;
58567;SDS011;44354;46.192;-1.076;2022-12-19T06:13:31;0.60;;;0.60;;
58567;SDS011;44354;46.192;-1.076;2022-12-19T06:16:01;0.30;;;0.30;;
58567;SDS011;44354;46.192;-1.076;2022-12-19T06:18:32;2.60;;;0.95;;
58567;SDS011;44354;46.192;-1.076;2022-12-19T06:20:59;3.63;;;1.80;;
58567;SDS011;44354;46.192;-1.076;2022-12-19T06:23:26;2.30;;;1.63;;
58567;SDS011;44354;46.192;-1.076;2022-12-19T06:25:57;2.42;;;1.50;;
58567;SDS011;44354;46.192;-1.076;2022-12-19T06:28:24;3.53;;;1.85;;
58567;SDS011;44354;46.192;-1.076;2022-12-19T06:30:51;2.10;;;1.10;;
58567;SDS011;44354;46.192;-1.076;2022-12-19T06:33:16;2.70;;;1.70;;
58567;SDS011;44354;46.192;-1.076;2022-12-19T06:35:42;3.22;;;1.25;;
58567;SDS011;44354;46.192;-1.076;2022-12-19T06:38:08;3.97;;;1.73;;
58567;SDS011;44354;46.192;-1.076;2022-12-19T06:40:34;3.40;;;1.77;;
58567;SDS011;44354;46.192;-1.076;2022-12-19T06:43:23;6.07;;;1.90;;
58567;SDS011;44354;46.192;-1.076;2022-12-19T06:45:50;2.47;;;1.20;;
58567;SDS011;44354;46.192;-1.076;2022-12-19T06:48:15;4.97;;;2.03;;
58567;SDS011;44354;46.192;-1.076;2022-12-19T06:50:41;2.50;;;1.70;;
58567;SDS011;44354;46.192;-1.076;2022-12-19T06:53:07;2.95;;;1.70;;
58567;SDS011;44354;46.192;-1.076;2022-12-19T06:55:34;3.83;;;1.70;;
58567;SDS011;44354;46.192;-1.076;2022-12-19T06:58:01;3.85;;;1.83;;
58567;SDS011;44354;46.192;-1.076;2022-12-19T07:00:27;2.10;;;0.98;;
58567;SDS011;44354;46.192;-1.076;2022-12-19T07:02:52;3.63;;;1.05;;
58567;SDS011;44354;46.192;-1.076;2022-12-19T07:05:20;3.35;;;1.63;;
58567;SDS011;44354;46.192;-1.076;2022-12-19T07:07:46;3.15;;;1.65;;
58567;SDS011;44354;46.192;-1.076;2022-12-19T07:10:11;3.40;;;1.67;;
58567;SDS011;44354;46.192;-1.076;2022-12-19T07:12:37;3.17;;;1.75;;
58567;SDS011;44354;46.192;-1.076;2022-12-19T07:15:03;3.25;;;1.92;;
58567;SDS011;44354;46.192;-1.076;2022-12-19T07:17:29;2.53;;;1.70;;
58567;SDS011;44354;46.192;-1.076;2022-12-19T07:19:55;4.03;;;1.70;;
58567;SDS011;44354;46.192;-1.076;2022-12-19T07:22:22;4.22;;;1.73;;
58567;SDS011;44354;46.192;-1.076;2022-12-19T07:24:53;2.40;;;1.70;;
58567;SDS011;44354;46.192;-1.076;2022-12-19T07:27:19;2.17;;;1.98;;
58567;SDS011;44354;46.192;-1.076;2022-12-19T07:29:46;4.03;;;2.03;;
58567;SDS011;44354;46.192;-1.076;2022-12-19T07:32:12;4.05;;;1.80;;
58567;SDS011;44354;46.192;-1.076;2022-12-19T07:34:38;2.25;;;1.85;;
58567;SDS011;44354;46.192;-1.076;2022-12-19T07:37:04;6.28;;;2.40;;
58567;SDS011;44354;46.192;-1.076;2022-12-19T07:39:30;3.65;;;2.28;;
58567;SDS011;44354;46.192;-1.076;2022-12-19T07:41:56;2.78;;;1.80;;
58567;SDS011;44354;46.192;-1.076;2022-12-19T07:44:22;4.95;;;2.03;;
58567;SDS011;44354;46.192;-1.076;2022-12-19T07:46:47;3.22;;;2.10;;
58567;SDS011;44354;46.192;-1.076;2022-12-19T07:49:13;3.58;;;1.95;;
58567;SDS011;44354;46.192;-1.076;2022-12-19T07:51:39;4.25;;;1.63;;
58567;SDS011;44354;46.192;-1.076;2022-12-19T07:54:04;2.97;;;1.58;;
58567;SDS011;44354;46.192;-1.076;2022-12-19T07:56:30;4.15;;;1.60;;
58567;SDS011;44354;46.192;-1.076;2022-12-19T07:58:56;3.72;;;2.20;;
58567;SDS011;44354;46.192;-1.076;2022-12-19T08:01:21;5.30;;;2.03;;
58567;SDS011;44354;46.192;-1.076;2022-12-19T08:03:47;5.05;;;2.17;;
58567;SDS011;44354;46.192;-1.076;2022-12-19T08:06:13;5.13;;;2.60;;
58567;SDS011;44354;46.192;-1.076;2022-12-19T08:08:39;4.95;;;2.45;;
58567;SDS011;44354;46.192;-1.076;2022-12-19T08:11:14;2.92;;;1.90;;
58567;SDS011;44354;46.192;-1.076;2022-12-19T08:13:51;4.60;;;2.38;;
58567;SDS011;44354;46.192;-1.076;2022-12-19T08:16:17;2.83;;;2.03;;
58567;SDS011;44354;46.192;-1.076;2022-12-19T08:18:43;5.70;;;2.45;;
58567;SDS011;44354;46.192;-1.076;2022-12-19T08:21:09;5.40;;;2.28;;
58567;SDS011;44354;46.192;-1.076;2022-12-19T08:23:35;3.45;;;2.25;;
58567;SDS011;44354;46.192;-1.076;2022-12-19T08:26:03;3.40;;;2.17;;
58567;SDS011;44354;46.192;-1.076;2022-12-19T08:28:35;4.18;;;2.08;;
58567;SDS011;44354;46.192;-1.076;2022-12-19T08:31:20;5.20;;;2.38;;
58567;SDS011;44354;46.192;-1.076;2022-12-19T08:33:48;4.22;;;2.33;;
58567;SDS011;44354;46.192;-1.076;2022-12-19T08:36:15;5.82;;;2.08;;
58567;SDS011;44354;46.192;-1.076;2022-12-19T08:38:44;3.35;;;1.90;;
58567;SDS011;44354;46.192;-1.076;2022-12-19T08:41:11;4.35;;;2.50;;
58567;SDS011;44354;46.192;-1.076;2022-12-19T08:43:37;5.00;;;2.40;;
58567;SDS011;44354;46.192;-1.076;2022-12-19T08:46:03;3.45;;;2.17;;
58567;SDS011;44354;46.192;-1.076;2022-12-19T08:48:32;2.88;;;2.03;;
58567;SDS011;44354;46.192;-1.076;2022-12-19T08:51:00;4.53;;;2.10;;
58567;SDS011;44354;46.192;-1.076;2022-12-19T08:53:28;6.88;;;2.10;;
58567;SDS011;44354;46.192;-1.076;2022-12-19T08:55:55;3.35;;;2.10;;
58567;SDS011;44354;46.192;-1.076;2022-12-19T08:58:23;4.38;;;2.40;;
58567;SDS011;44354;46.192;-1.076;2022-12-19T09:00:49;3.92;;;2.40;;
58567;SDS011;44354;46.192;-1.076;2022-12-19T09:03:17;2.80;;;2.42;;
58567;SDS011;44354;46.192;-1.076;2022-12-19T09:05:43;3.72;;;1.80;;
58567;SDS011;44354;46.192;-1.076;2022-12-19T09:08:09;3.90;;;2.38;;
58567;SDS011;44354;46.192;-1.076;2022-12-19T09:10:35;3.38;;;2.25;;
58567;SDS011;44354;46.192;-1.076;2022-12-19T09:13:02;5.15;;;2.60;;
58567;SDS011;44354;46.192;-1.076;2022-12-19T09:15:29;5.55;;;2.28;;
58567;SDS011;44354;46.192;-1.076;2022-12-19T09:17:55;5.38;;;2.42;;
58567;SDS011;44354;46.192;-1.076;2022-12-19T09:20:20;5.38;;;2.30;;
58567;SDS011;44354;46.192;-1.076;2022-12-19T09:22:46;3.42;;;2.60;;
58567;SDS011;44354;46.192;-1.076;2022-12-19T09:25:12;6.90;;;2.83;;
58567;SDS011;44354;46.192;-1.076;2022-12-19T09:27:38;3.80;;;2.60;;
58567;SDS011;44354;46.192;-1.076;2022-12-19T09:30:04;6.07;;;3.25;;
58567;SDS011;44354;46.192;-1.076;2022-12-19T09:32:30;5.78;;;3.00;;
58567;SDS011;44354;46.192;-1.076;2022-12-19T09:34:56;2.63;;;2.42;;
58567;SDS011;44354;46.192;-1.076;2022-12-19T09:37:22;6.13;;;2.88;;
58567;SDS011;44354;46.192;-1.076;2022-12-19T09:39:47;5.68;;;2.65;;
58567;SDS011;44354;46.192;-1.076;2022-12-19T09:47:41;3.30;;;2.63;;
58567;SDS011;44354;46.192;-1.076;2022-12-19T09:50:17;5.53;;;3.10;;
58567;SDS011;44354;46.192;-1.076;2022-12-19T09:52:57;5.43;;;3.55;;
58567;SDS011;44354;46.192;-1.076;2022-12-19T09:55:30;3.72;;;3.30;;
58567;SDS011;44354;46.192;-1.076;2022-12-19T09:58:12;5.32;;;2.92;;
58567;SDS011;44354;46.192;-1.076;2022-12-19T10:00:47;4.90;;;3.15;;
58567;SDS011;44354;46.192;-1.076;2022-12-19T10:03:19;4.50;;;2.92;;
58567;SDS011;44354;46.192;-1.076;2022-12-19T10:05:50;4.53;;;3.25;;
58567;SDS011;44354;46.192;-1.076;2022-12-19T10:08:20;4.93;;;3.10;;
58567;SDS011;44354;46.192;-1.076;2022-12-19T10:25:18;7.63;;;5.43;;
58567;SDS011;44354;46.192;-1.076;2022-12-19T10:33:43;4.85;;;3.13;;
58567;SDS011;44354;46.192;-1.076;2022-12-19T10:36:16;7.60;;;5.00;;
58567;SDS011;44354;46.192;-1.076;2022-12-19T10:38:44;6.20;;;4.25;;
58567;SDS011;44354;46.192;-1.076;2022-12-19T10:41:22;4.53;;;4.13;;
58567;SDS011;44354;46.192;-1.076;2022-12-19T10:43:57;6.00;;;4.28;;
58567;SDS011;44354;46.192;-1.076;2022-12-19T10:49:05;6.63;;;2.83;;
58567;SDS011;44354;46.192;-1.076;2022-12-19T10:51:38;5.53;;;3.30;;
58567;SDS011;44354;46.192;-1.076;2022-12-19T10:54:04;3.92;;;3.40;;
58567;SDS011;44354;46.192;-1.076;2022-12-19T10:56:30;3.42;;;3.10;;
58567;SDS011;44354;46.192;-1.076;2022-12-19T10:58:56;4.63;;;3.13;;
58567;SDS011;44354;46.192;-1.076;2022-12-19T11:01:38;6.50;;;2.83;;
58567;SDS011;44354;46.192;-1.076;2022-12-19T11:06:54;27.58;;;13.43;;
58567;SDS011;44354;46.192;-1.076;2022-12-19T11:09:38;20.48;;;10.27;;
58567;SDS011;44354;46.192;-1.076;2022-12-19T11:12:09;6.38;;;4.13;;
58567;SDS011;44354;46.192;-1.076;2022-12-19T11:14:45;6.88;;;4.43;;
58567;SDS011;44354;46.192;-1.076;2022-12-19T11:17:26;4.50;;;3.90;;
58567;SDS011;44354;46.192;-1.076;2022-12-19T11:20:10;9.52;;;4.95;;
58567;SDS011;44354;46.192;-1.076;2022-12-19T11:22:54;5.70;;;4.18;;
58567;SDS011;44354;46.192;-1.076;2022-12-19T11:25:29;5.63;;;3.83;;
58567;SDS011;44354;46.192;-1.076;2022-12-19T11:28:08;6.30;;;4.68;;
58567;SDS011;44354;46.192;-1.076;2022-12-19T11:30:53;5.85;;;3.38;;
58567;SDS011;44354;46.192;-1.076;2022-12-19T11:33:21;5.43;;;4.72;;
58567;SDS011;44354;46.192;-1.076;2022-12-19T11:35:53;10.65;;;4.25;;
58567;SDS011;44354;46.192;-1.076;2022-12-19T11:38:41;5.45;;;3.67;;
58567;SDS011;44354;46.192;-1.076;2022-12-19T11:41:39;6.07;;;3.90;;
58567;SDS011;44354;46.192;-1.076;2022-12-19T11:49:53;7.80;;;5.32;;
58567;SDS011;44354;46.192;-1.076;2022-12-19T11:52:39;4.43;;;3.58;;
58567;SDS011;44354;46.192;-1.076;2022-12-19T11:57:47;4.45;;;4.05;;
58567;SDS011;44354;46.192;-1.076;2022-12-19T12:00:17;6.53;;;4.63;;
58567;SDS011;44354;46.192;-1.076;2022-12-19T12:08:20;7.32;;;4.80;;
58567;SDS011;44354;46.192;-1.076;2022-12-19T12:16:34;4.88;;;4.50;;
58567;SDS011;44354;46.192;-1.076;2022-12-19T12:30:08;12.90;;;8.48;;
58567;SDS011;44354;46.192;-1.076;2022-12-19T12:35:21;9.18;;;6.15;;
58567;SDS011;44354;46.192;-1.076;2022-12-19T12:38:06;7.07;;;5.55;;
58567;SDS011;44354;46.192;-1.076;2022-12-19T12:41:17;6.78;;;6.00;;
58567;SDS011;44354;46.192;-1.076;2022-12-19T12:46:30;6.50;;;6.00;;
58567;SDS011;44354;46.192;-1.076;2022-12-19T12:49:02;6.35;;;5.85;;
58567;SDS011;44354;46.192;-1.076;2022-12-19T12:51:29;7.13;;;6.43;;
58567;SDS011;44354;46.192;-1.076;2022-12-19T12:54:08;7.03;;;6.50;;
58567;SDS011;44354;46.192;-1.076;2022-12-19T12:56:38;6.85;;;6.22;;
58567;SDS011;44354;46.192;-1.076;2022-12-19T12:59:22;7.40;;;5.63;;
58567;SDS011;44354;46.192;-1.076;2022-12-19T13:01:54;6.25;;;5.85;;
58567;SDS011;44354;46.192;-1.076;2022-12-19T13:04:25;7.45;;;6.60;;
58567;SDS011;44354;46.192;-1.076;2022-12-19T13:07:03;7.07;;;6.55;;
58567;SDS011;44354;46.192;-1.076;2022-12-19T13:09:38;6.90;;;6.30;;
58567;SDS011;44354;46.192;-1.076;2022-12-19T13:12:24;6.18;;;5.68;;
58567;SDS011;44354;46.192;-1.076;2022-12-19T13:27:58;7.25;;;6.60;;
58567;SDS011;44354;46.192;-1.076;2022-12-19T13:30:37;8.30;;;7.50;;
58567;SDS011;44354;46.192;-1.076;2022-12-19T13:33:55;7.65;;;6.90;;
58567;SDS011;44354;46.192;-1.076;2022-12-19T13:42:00;8.35;;;6.97;;
58567;SDS011;44354;46.192;-1.076;2022-12-19T13:44:52;8.55;;;6.82;;
58567;SDS011;44354;46.192;-1.076;2022-12-19T13:47:20;7.55;;;6.82;;
58567;SDS011;44354;46.192;-1.076;2022-12-19T13:49:48;11.07;;;7.38;;
58567;SDS011;44354;46.192;-1.076;2022-12-19T13:52:16;9.75;;;6.57;;
58567;SDS011;44354;46.192;-1.076;2022-12-19T13:54:49;6.82;;;6.25;;
58567;SDS011;44354;46.192;-1.076;2022-12-19T13:57:24;8.35;;;7.47;;
58567;SDS011;44354;46.192;-1.076;2022-12-19T13:59:56;8.05;;;6.57;;
58567;SDS011;44354;46.192;-1.076;2022-12-19T14:02:31;7.78;;;7.07;;
58567;SDS011;44354;46.192;-1.076;2022-12-19T14:04:59;7.72;;;7.03;;
58567;SDS011;44354;46.192;-1.076;2022-12-19T14:07:34;7.43;;;6.78;;
58567;SDS011;44354;46.192;-1.076;2022-12-19T14:10:05;8.13;;;7.40;;
58567;SDS011;44354;46.192;-1.076;2022-12-19T14:12:39;8.40;;;7.57;;
58567;SDS011;44354;46.192;-1.076;2022-12-19T14:15:38;8.02;;;7.07;;
58567;SDS011;44354;46.192;-1.076;2022-12-19T14:20:46;8.23;;;7.22;;
58567;SDS011;44354;46.192;-1.076;2022-12-19T14:23:12;10.90;;;6.97;;
58567;SDS011;44354;46.192;-1.076;2022-12-19T14:25:45;8.52;;;7.55;;
58567;SDS011;44354;46.192;-1.076;2022-12-19T14:28:18;8.07;;;7.32;;
58567;SDS011;44354;46.192;-1.076;2022-12-19T14:30:50;10.88;;;7.50;;
58567;SDS011;44354;46.192;-1.076;2022-12-19T14:33:28;7.63;;;6.97;;
58567;SDS011;44354;46.192;-1.076;2022-12-19T14:38:27;9.40;;;7.18;;
58567;SDS011;44354;46.192;-1.076;2022-12-19T14:40:56;9.70;;;7.38;;
58567;SDS011;44354;46.192;-1.076;2022-12-19T14:43:23;7.97;;;7.10;;
58567;SDS011;44354;46.192;-1.076;2022-12-19T14:48:48;7.68;;;7.18;;
58567;SDS011;44354;46.192;-1.076;2022-12-19T14:54:02;7.90;;;7.15;;
58567;SDS011;44354;46.192;-1.076;2022-12-19T14:56:56;8.93;;;7.25;;
58567;SDS011;44354;46.192;-1.076;2022-12-19T15:02:25;7.97;;;7.30;;
58567;SDS011;44354;46.192;-1.076;2022-12-19T15:05:00;8.70;;;7.10;;
58567;SDS011;44354;46.192;-1.076;2022-12-19T15:07:39;7.63;;;7.00;;
58567;SDS011;44354;46.192;-1.076;2022-12-19T15:18:17;8.13;;;7.53;;
58567;SDS011;44354;46.192;-1.076;2022-12-19T15:20:45;7.63;;;7.05;;
58567;SDS011;44354;46.192;-1.076;2022-12-19T15:23:11;7.95;;;7.18;;
58567;SDS011;44354;46.192;-1.076;2022-12-19T15:25:37;8.32;;;7.65;;
58567;SDS011;44354;46.192;-1.076;2022-12-19T15:28:14;7.53;;;6.93;;
58567;SDS011;44354;46.192;-1.076;2022-12-19T15:30:58;9.13;;;8.23;;
58567;SDS011;44354;46.192;-1.076;2022-12-19T15:33:29;10.18;;;8.35;;
58567;SDS011;44354;46.192;-1.076;2022-12-19T15:35:54;14.27;;;10.55;;
58567;SDS011;44354;46.192;-1.076;2022-12-19T15:38:20;21.77;;;11.57;;
58567;SDS011;44354;46.192;-1.076;2022-12-19T15:40:46;30.13;;;13.98;;
58567;SDS011;44354;46.192;-1.076;2022-12-19T15:43:15;65.18;;;23.63;;
58567;SDS011;44354;46.192;-1.076;2022-12-19T15:45:44;14.13;;;11.15;;
58567;SDS011;44354;46.192;-1.076;2022-12-19T15:48:12;23.00;;;13.90;;
58567;SDS011;44354;46.192;-1.076;2022-12-19T15:50:40;15.13;;;10.98;;
58567;SDS011;44354;46.192;-1.076;2022-12-19T15:56:28;10.95;;;9.18;;
58567;SDS011;44354;46.192;-1.076;2022-12-19T15:58:55;11.38;;;8.48;;
58567;SDS011;44354;46.192;-1.076;2022-12-19T16:01:23;15.02;;;9.93;;
58567;SDS011;44354;46.192;-1.076;2022-12-19T16:03:50;11.10;;;10.20;;
58567;SDS011;44354;46.192;-1.076;2022-12-19T16:06:16;8.93;;;8.32;;
58567;SDS011;44354;46.192;-1.076;2022-12-19T16:08:42;10.43;;;9.23;;
58567;SDS011;44354;46.192;-1.076;2022-12-19T16:11:14;7.82;;;7.13;;
58567;SDS011;44354;46.192;-1.076;2022-12-19T16:13:45;18.58;;;12.77;;
58567;SDS011;44354;46.192;-1.076;2022-12-19T16:16:15;31.58;;;15.68;;
58567;SDS011;44354;46.192;-1.076;2022-12-19T16:18:44;20.67;;;11.38;;
58567;SDS011;44354;46.192;-1.076;2022-12-19T16:21:18;40.53;;;18.98;;
58567;SDS011;44354;46.192;-1.076;2022-12-19T16:23:45;19.48;;;11.90;;
58567;SDS011;44354;46.192;-1.076;2022-12-19T16:26:17;31.35;;;14.10;;
58567;SDS011;44354;46.192;-1.076;2022-12-19T16:28:57;17.52;;;12.25;;
58567;SDS011;44354;46.192;-1.076;2022-12-19T16:31:24;14.55;;;11.82;;
58567;SDS011;44354;46.192;-1.076;2022-12-19T16:33:51;11.00;;;8.50;;
58567;SDS011;44354;46.192;-1.076;2022-12-19T16:36:17;12.82;;;10.75;;
58567;SDS011;44354;46.192;-1.076;2022-12-19T16:38:43;9.27;;;8.65;;
58567;SDS011;44354;46.192;-1.076;2022-12-19T16:41:12;11.65;;;10.63;;
58567;SDS011;44354;46.192;-1.076;2022-12-19T16:43:43;9.23;;;8.70;;
58567;SDS011;44354;46.192;-1.076;2022-12-19T16:46:12;7.15;;;6.78;;
58567;SDS011;44354;46.192;-1.076;2022-12-19T16:48:42;5.95;;;5.65;;
58567;SDS011;44354;46.192;-1.076;2022-12-19T16:51:15;7.18;;;6.78;;
58567;SDS011;44354;46.192;-1.076;2022-12-19T16:53:47;8.02;;;7.43;;
58567;SDS011;44354;46.192;-1.076;2022-12-19T16:58:59;7.78;;;6.93;;
58567;SDS011;44354;46.192;-1.076;2022-12-19T17:01:32;10.68;;;9.77;;
58567;SDS011;44354;46.192;-1.076;2022-12-19T17:03:58;7.78;;;7.25;;
58567;SDS011;44354;46.192;-1.076;2022-12-19T17:06:25;7.50;;;6.93;;
58567;SDS011;44354;46.192;-1.076;2022-12-19T17:08:51;6.78;;;6.47;;